sensor_id;sensor_type;location;lat;lon;timestamp;P1;durP1;ratioP1;P2;durP2;ratioP2
47429;SDS011;33181;49.246;7.372;2022-08-21T00:00:15;8.10;;;5.17;;
47429;SDS011;33181;49.246;7.372;2022-08-21T00:02:46;7.50;;;5.57;;
47429;SDS011;33181;49.246;7.372;2022-08-21T00:05:20;6.07;;;4.80;;
47429;SDS011;33181;49.246;7.372;2022-08-21T00:07:47;9.20;;;4.90;;
47429;SDS011;33181;49.246;7.372;2022-08-21T00:10:13;6.77;;;4.80;;
47429;SDS011;33181;49.246;7.372;2022-08-21T00:12:41;7.00;;;4.93;;
47429;SDS011;33181;49.246;7.372;2022-08-21T00:15:07;6.27;;;5.20;;
47429;SDS011;33181;49.246;7.372;2022-08-21T00:17:35;8.53;;;5.90;;
47429;SDS011;33181;49.246;7.372;2022-08-21T00:20:03;8.40;;;5.63;;
47429;SDS011;33181;49.246;7.372;2022-08-21T00:22:34;9.40;;;5.80;;
47429;SDS011;33181;49.246;7.372;2022-08-21T00:25:01;6.47;;;5.00;;
47429;SDS011;33181;49.246;7.372;2022-08-21T00:27:30;5.90;;;4.90;;
47429;SDS011;33181;49.246;7.372;2022-08-21T00:29:55;8.80;;;5.17;;
47429;SDS011;33181;49.246;7.372;2022-08-21T00:32:22;7.63;;;5.70;;
47429;SDS011;33181;49.246;7.372;2022-08-21T00:34:51;8.80;;;5.67;;
47429;SDS011;33181;49.246;7.372;2022-08-21T00:37:17;8.17;;;6.00;;
47429;SDS011;33181;49.246;7.372;2022-08-21T00:39:42;9.90;;;6.23;;
47429;SDS011;33181;49.246;7.372;2022-08-21T00:42:08;7.23;;;5.43;;
47429;SDS011;33181;49.246;7.372;2022-08-21T00:44:39;9.73;;;5.40;;
47429;SDS011;33181;49.246;7.372;2022-08-21T00:47:08;7.10;;;5.40;;
47429;SDS011;33181;49.246;7.372;2022-08-21T00:49:35;7.87;;;5.90;;
47429;SDS011;33181;49.246;7.372;2022-08-21T00:52:02;9.20;;;6.00;;
47429;SDS011;33181;49.246;7.372;2022-08-21T00:54:30;7.20;;;5.67;;
47429;SDS011;33181;49.246;7.372;2022-08-21T00:56:59;12.13;;;6.53;;
47429;SDS011;33181;49.246;7.372;2022-08-21T00:59:32;7.03;;;5.73;;
47429;SDS011;33181;49.246;7.372;2022-08-21T01:02:02;8.47;;;5.90;;
47429;SDS011;33181;49.246;7.372;2022-08-21T01:04:32;7.60;;;5.90;;
47429;SDS011;33181;49.246;7.372;2022-08-21T01:06:58;10.43;;;6.27;;
47429;SDS011;33181;49.246;7.372;2022-08-21T01:09:24;9.13;;;6.40;;
47429;SDS011;33181;49.246;7.372;2022-08-21T01:11:50;9.00;;;6.10;;
47429;SDS011;33181;49.246;7.372;2022-08-21T01:14:16;8.17;;;5.67;;
47429;SDS011;33181;49.246;7.372;2022-08-21T01:16:45;8.17;;;6.13;;
47429;SDS011;33181;49.246;7.372;2022-08-21T01:19:14;7.00;;;5.77;;
47429;SDS011;33181;49.246;7.372;2022-08-21T01:21:42;7.17;;;5.27;;
47429;SDS011;33181;49.246;7.372;2022-08-21T01:24:08;7.50;;;5.47;;
47429;SDS011;33181;49.246;7.372;2022-08-21T01:26:35;6.73;;;5.67;;
47429;SDS011;33181;49.246;7.372;2022-08-21T01:31:39;6.03;;;5.27;;
47429;SDS011;33181;49.246;7.372;2022-08-21T01:34:05;7.63;;;5.80;;
47429;SDS011;33181;49.246;7.372;2022-08-21T01:36:32;10.60;;;5.70;;
47429;SDS011;33181;49.246;7.372;2022-08-21T01:38:58;10.10;;;5.93;;
47429;SDS011;33181;49.246;7.372;2022-08-21T01:41:24;8.37;;;5.40;;
47429;SDS011;33181;49.246;7.372;2022-08-21T01:43:50;10.50;;;5.77;;
47429;SDS011;33181;49.246;7.372;2022-08-21T01:46:16;8.57;;;5.73;;
47429;SDS011;33181;49.246;7.372;2022-08-21T01:48:42;8.57;;;5.60;;
47429;SDS011;33181;49.246;7.372;2022-08-21T01:51:08;9.50;;;6.00;;
47429;SDS011;33181;49.246;7.372;2022-08-21T01:53:35;8.20;;;5.67;;
47429;SDS011;33181;49.246;7.372;2022-08-21T01:56:03;8.07;;;5.70;;
47429;SDS011;33181;49.246;7.372;2022-08-21T01:58:31;7.13;;;5.50;;
47429;SDS011;33181;49.246;7.372;2022-08-21T02:00:57;7.30;;;5.10;;
47429;SDS011;33181;49.246;7.372;2022-08-21T02:03:23;7.90;;;5.47;;
47429;SDS011;33181;49.246;7.372;2022-08-21T02:05:49;10.97;;;6.03;;
47429;SDS011;33181;49.246;7.372;2022-08-21T02:08:14;6.80;;;5.00;;
47429;SDS011;33181;49.246;7.372;2022-08-21T02:10:40;7.27;;;5.40;;
47429;SDS011;33181;49.246;7.372;2022-08-21T02:13:07;6.97;;;4.97;;
47429;SDS011;33181;49.246;7.372;2022-08-21T02:15:33;6.47;;;5.30;;
47429;SDS011;33181;49.246;7.372;2022-08-21T02:18:00;10.17;;;5.70;;
47429;SDS011;33181;49.246;7.372;2022-08-21T02:20:30;7.70;;;5.57;;
47429;SDS011;33181;49.246;7.372;2022-08-21T02:23:03;6.80;;;5.30;;
47429;SDS011;33181;49.246;7.372;2022-08-21T02:25:32;12.13;;;5.90;;
47429;SDS011;33181;49.246;7.372;2022-08-21T02:27:58;6.47;;;5.47;;
47429;SDS011;33181;49.246;7.372;2022-08-21T02:30:29;8.10;;;5.40;;
47429;SDS011;33181;49.246;7.372;2022-08-21T02:32:59;6.83;;;5.60;;
47429;SDS011;33181;49.246;7.372;2022-08-21T02:35:25;7.70;;;5.73;;
47429;SDS011;33181;49.246;7.372;2022-08-21T02:37:53;8.73;;;6.33;;
47429;SDS011;33181;49.246;7.372;2022-08-21T02:40:24;7.90;;;5.50;;
47429;SDS011;33181;49.246;7.372;2022-08-21T02:42:53;9.33;;;5.70;;
47429;SDS011;33181;49.246;7.372;2022-08-21T02:45:19;7.00;;;5.50;;
47429;SDS011;33181;49.246;7.372;2022-08-21T02:47:49;7.60;;;5.80;;
47429;SDS011;33181;49.246;7.372;2022-08-21T02:50:21;6.80;;;5.10;;
47429;SDS011;33181;49.246;7.372;2022-08-21T02:52:53;6.93;;;5.50;;
47429;SDS011;33181;49.246;7.372;2022-08-21T02:55:20;8.63;;;5.40;;
47429;SDS011;33181;49.246;7.372;2022-08-21T02:57:50;11.50;;;5.83;;
47429;SDS011;33181;49.246;7.372;2022-08-21T03:00:17;9.27;;;5.83;;
47429;SDS011;33181;49.246;7.372;2022-08-21T03:02:45;8.90;;;5.60;;
47429;SDS011;33181;49.246;7.372;2022-08-21T03:05:12;9.80;;;5.73;;
47429;SDS011;33181;49.246;7.372;2022-08-21T03:07:40;8.17;;;5.03;;
47429;SDS011;33181;49.246;7.372;2022-08-21T03:10:07;8.00;;;6.07;;
47429;SDS011;33181;49.246;7.372;2022-08-21T03:12:34;9.53;;;6.10;;
47429;SDS011;33181;49.246;7.372;2022-08-21T03:15:05;9.73;;;6.30;;
47429;SDS011;33181;49.246;7.372;2022-08-21T03:17:35;8.30;;;6.20;;
47429;SDS011;33181;49.246;7.372;2022-08-21T03:20:01;8.93;;;5.87;;
47429;SDS011;33181;49.246;7.372;2022-08-21T03:22:29;8.37;;;5.07;;
47429;SDS011;33181;49.246;7.372;2022-08-21T03:24:55;9.33;;;5.90;;
47429;SDS011;33181;49.246;7.372;2022-08-21T03:27:22;7.37;;;6.00;;
47429;SDS011;33181;49.246;7.372;2022-08-21T03:29:51;6.87;;;5.50;;
47429;SDS011;33181;49.246;7.372;2022-08-21T03:32:18;7.60;;;6.07;;
47429;SDS011;33181;49.246;7.372;2022-08-21T03:34:44;8.50;;;6.00;;
47429;SDS011;33181;49.246;7.372;2022-08-21T03:37:11;12.57;;;6.50;;
47429;SDS011;33181;49.246;7.372;2022-08-21T03:39:38;9.10;;;6.33;;
47429;SDS011;33181;49.246;7.372;2022-08-21T03:42:06;10.30;;;5.80;;
47429;SDS011;33181;49.246;7.372;2022-08-21T03:44:32;6.93;;;5.73;;
47429;SDS011;33181;49.246;7.372;2022-08-21T03:46:59;6.57;;;5.43;;
47429;SDS011;33181;49.246;7.372;2022-08-21T03:49:26;7.20;;;5.63;;
47429;SDS011;33181;49.246;7.372;2022-08-21T03:51:52;7.17;;;5.80;;
47429;SDS011;33181;49.246;7.372;2022-08-21T03:54:19;8.03;;;5.43;;
47429;SDS011;33181;49.246;7.372;2022-08-21T03:56:45;8.10;;;5.63;;
47429;SDS011;33181;49.246;7.372;2022-08-21T03:59:11;8.80;;;5.77;;
47429;SDS011;33181;49.246;7.372;2022-08-21T04:01:37;7.17;;;5.53;;
47429;SDS011;33181;49.246;7.372;2022-08-21T04:04:04;12.90;;;6.30;;
47429;SDS011;33181;49.246;7.372;2022-08-21T04:06:30;6.83;;;5.50;;
47429;SDS011;33181;49.246;7.372;2022-08-21T04:08:57;8.37;;;5.60;;
47429;SDS011;33181;49.246;7.372;2022-08-21T04:11:23;6.87;;;5.30;;
47429;SDS011;33181;49.246;7.372;2022-08-21T04:13:49;8.30;;;5.97;;
47429;SDS011;33181;49.246;7.372;2022-08-21T04:16:14;7.87;;;5.80;;
47429;SDS011;33181;49.246;7.372;2022-08-21T04:18:40;7.97;;;5.90;;
47429;SDS011;33181;49.246;7.372;2022-08-21T04:21:07;11.00;;;5.97;;
47429;SDS011;33181;49.246;7.372;2022-08-21T04:23:35;9.03;;;5.93;;
47429;SDS011;33181;49.246;7.372;2022-08-21T04:26:02;7.43;;;5.37;;
47429;SDS011;33181;49.246;7.372;2022-08-21T04:28:28;6.90;;;5.33;;
47429;SDS011;33181;49.246;7.372;2022-08-21T04:30:54;8.60;;;5.60;;
47429;SDS011;33181;49.246;7.372;2022-08-21T04:33:21;8.90;;;6.13;;
47429;SDS011;33181;49.246;7.372;2022-08-21T04:35:48;9.43;;;5.57;;
47429;SDS011;33181;49.246;7.372;2022-08-21T04:38:15;6.80;;;5.10;;
47429;SDS011;33181;49.246;7.372;2022-08-21T04:40:41;8.97;;;5.80;;
47429;SDS011;33181;49.246;7.372;2022-08-21T04:43:08;7.10;;;5.10;;
47429;SDS011;33181;49.246;7.372;2022-08-21T04:45:36;6.90;;;5.47;;
47429;SDS011;33181;49.246;7.372;2022-08-21T04:48:08;7.37;;;5.00;;
47429;SDS011;33181;49.246;7.372;2022-08-21T04:50:37;7.33;;;5.20;;
47429;SDS011;33181;49.246;7.372;2022-08-21T04:53:20;5.57;;;5.07;;
47429;SDS011;33181;49.246;7.372;2022-08-21T04:56:01;8.23;;;6.20;;
47429;SDS011;33181;49.246;7.372;2022-08-21T04:58:45;6.63;;;5.17;;
47429;SDS011;33181;49.246;7.372;2022-08-21T05:01:14;7.20;;;5.83;;
47429;SDS011;33181;49.246;7.372;2022-08-21T05:03:45;7.73;;;5.70;;
47429;SDS011;33181;49.246;7.372;2022-08-21T05:06:15;9.67;;;5.20;;
47429;SDS011;33181;49.246;7.372;2022-08-21T05:08:42;7.33;;;5.93;;
47429;SDS011;33181;49.246;7.372;2022-08-21T05:11:10;6.57;;;5.33;;
47429;SDS011;33181;49.246;7.372;2022-08-21T05:13:36;7.93;;;5.17;;
47429;SDS011;33181;49.246;7.372;2022-08-21T05:16:02;6.83;;;5.30;;
47429;SDS011;33181;49.246;7.372;2022-08-21T05:18:28;8.50;;;5.70;;
47429;SDS011;33181;49.246;7.372;2022-08-21T05:20:54;5.83;;;4.70;;
47429;SDS011;33181;49.246;7.372;2022-08-21T05:23:20;6.53;;;4.53;;
47429;SDS011;33181;49.246;7.372;2022-08-21T05:25:46;7.33;;;4.70;;
47429;SDS011;33181;49.246;7.372;2022-08-21T05:28:11;6.33;;;4.53;;
47429;SDS011;33181;49.246;7.372;2022-08-21T05:30:37;6.13;;;4.83;;
47429;SDS011;33181;49.246;7.372;2022-08-21T05:33:04;7.37;;;5.17;;
47429;SDS011;33181;49.246;7.372;2022-08-21T05:35:31;6.47;;;4.80;;
47429;SDS011;33181;49.246;7.372;2022-08-21T05:37:58;6.10;;;4.70;;
47429;SDS011;33181;49.246;7.372;2022-08-21T05:40:25;6.90;;;4.60;;
47429;SDS011;33181;49.246;7.372;2022-08-21T05:42:52;7.27;;;4.87;;
47429;SDS011;33181;49.246;7.372;2022-08-21T05:45:19;6.83;;;4.40;;
47429;SDS011;33181;49.246;7.372;2022-08-21T05:47:46;7.33;;;4.83;;
47429;SDS011;33181;49.246;7.372;2022-08-21T05:50:12;9.97;;;5.13;;
47429;SDS011;33181;49.246;7.372;2022-08-21T05:52:37;5.70;;;4.80;;
47429;SDS011;33181;49.246;7.372;2022-08-21T05:55:03;6.67;;;4.50;;
47429;SDS011;33181;49.246;7.372;2022-08-21T05:57:30;6.30;;;5.30;;
47429;SDS011;33181;49.246;7.372;2022-08-21T05:59:55;7.03;;;5.37;;
47429;SDS011;33181;49.246;7.372;2022-08-21T06:02:21;6.80;;;5.00;;
47429;SDS011;33181;49.246;7.372;2022-08-21T06:04:47;5.93;;;4.53;;
47429;SDS011;33181;49.246;7.372;2022-08-21T06:07:13;8.00;;;5.50;;
47429;SDS011;33181;49.246;7.372;2022-08-21T06:09:40;6.23;;;5.33;;
47429;SDS011;33181;49.246;7.372;2022-08-21T06:12:07;6.63;;;5.23;;
47429;SDS011;33181;49.246;7.372;2022-08-21T06:14:35;6.20;;;4.97;;
47429;SDS011;33181;49.246;7.372;2022-08-21T06:17:04;7.40;;;5.47;;
47429;SDS011;33181;49.246;7.372;2022-08-21T06:19:32;8.73;;;4.73;;
47429;SDS011;33181;49.246;7.372;2022-08-21T06:21:59;7.60;;;5.07;;
47429;SDS011;33181;49.246;7.372;2022-08-21T06:24:26;7.30;;;4.77;;
47429;SDS011;33181;49.246;7.372;2022-08-21T06:26:53;7.10;;;4.90;;
47429;SDS011;33181;49.246;7.372;2022-08-21T06:29:19;8.10;;;5.40;;
47429;SDS011;33181;49.246;7.372;2022-08-21T06:31:45;7.30;;;5.50;;
47429;SDS011;33181;49.246;7.372;2022-08-21T06:34:13;9.13;;;5.10;;
47429;SDS011;33181;49.246;7.372;2022-08-21T06:36:39;6.63;;;5.10;;
47429;SDS011;33181;49.246;7.372;2022-08-21T06:39:05;7.23;;;5.17;;
47429;SDS011;33181;49.246;7.372;2022-08-21T06:41:31;7.13;;;5.20;;
47429;SDS011;33181;49.246;7.372;2022-08-21T06:43:57;6.13;;;4.50;;
47429;SDS011;33181;49.246;7.372;2022-08-21T06:46:25;8.70;;;5.30;;
47429;SDS011;33181;49.246;7.372;2022-08-21T06:48:53;7.20;;;5.13;;
47429;SDS011;33181;49.246;7.372;2022-08-21T06:51:19;6.10;;;4.60;;
47429;SDS011;33181;49.246;7.372;2022-08-21T06:53:45;7.00;;;5.10;;
47429;SDS011;33181;49.246;7.372;2022-08-21T06:56:11;8.57;;;4.87;;
47429;SDS011;33181;49.246;7.372;2022-08-21T06:58:37;6.23;;;5.13;;
47429;SDS011;33181;49.246;7.372;2022-08-21T07:01:03;6.00;;;4.60;;
47429;SDS011;33181;49.246;7.372;2022-08-21T07:03:32;8.63;;;5.07;;
47429;SDS011;33181;49.246;7.372;2022-08-21T07:06:02;7.50;;;4.97;;
47429;SDS011;33181;49.246;7.372;2022-08-21T07:08:31;8.80;;;5.60;;
47429;SDS011;33181;49.246;7.372;2022-08-21T07:10:58;6.83;;;4.83;;
47429;SDS011;33181;49.246;7.372;2022-08-21T07:13:26;7.40;;;4.87;;
47429;SDS011;33181;49.246;7.372;2022-08-21T07:15:52;8.03;;;5.27;;
47429;SDS011;33181;49.246;7.372;2022-08-21T07:18:18;8.50;;;5.20;;
47429;SDS011;33181;49.246;7.372;2022-08-21T07:20:44;6.53;;;4.97;;
47429;SDS011;33181;49.246;7.372;2022-08-21T07:23:27;7.03;;;4.80;;
47429;SDS011;33181;49.246;7.372;2022-08-21T07:25:59;7.53;;;5.53;;
47429;SDS011;33181;49.246;7.372;2022-08-21T07:28:26;8.20;;;5.50;;
47429;SDS011;33181;49.246;7.372;2022-08-21T07:30:53;8.10;;;4.67;;
47429;SDS011;33181;49.246;7.372;2022-08-21T07:33:22;9.80;;;5.40;;
47429;SDS011;33181;49.246;7.372;2022-08-21T07:35:49;7.27;;;5.30;;
47429;SDS011;33181;49.246;7.372;2022-08-21T07:38:15;8.37;;;5.50;;
47429;SDS011;33181;49.246;7.372;2022-08-21T07:40:41;7.37;;;4.97;;
47429;SDS011;33181;49.246;7.372;2022-08-21T07:43:07;7.10;;;4.93;;
47429;SDS011;33181;49.246;7.372;2022-08-21T07:45:33;11.27;;;5.67;;
47429;SDS011;33181;49.246;7.372;2022-08-21T07:47:59;6.23;;;4.83;;
47429;SDS011;33181;49.246;7.372;2022-08-21T07:50:25;8.03;;;4.90;;
47429;SDS011;33181;49.246;7.372;2022-08-21T07:52:51;7.30;;;5.00;;
47429;SDS011;33181;49.246;7.372;2022-08-21T07:55:18;6.17;;;4.97;;
47429;SDS011;33181;49.246;7.372;2022-08-21T07:57:46;8.53;;;4.10;;
47429;SDS011;33181;49.246;7.372;2022-08-21T08:00:17;7.40;;;5.13;;
47429;SDS011;33181;49.246;7.372;2022-08-21T08:02:46;7.20;;;4.90;;
47429;SDS011;33181;49.246;7.372;2022-08-21T08:05:15;9.00;;;4.67;;
47429;SDS011;33181;49.246;7.372;2022-08-21T08:07:44;7.17;;;5.20;;
47429;SDS011;33181;49.246;7.372;2022-08-21T08:10:11;7.53;;;4.70;;
47429;SDS011;33181;49.246;7.372;2022-08-21T08:12:38;6.10;;;4.70;;
47429;SDS011;33181;49.246;7.372;2022-08-21T08:15:06;6.73;;;4.70;;
47429;SDS011;33181;49.246;7.372;2022-08-21T08:17:37;7.23;;;4.77;;
47429;SDS011;33181;49.246;7.372;2022-08-21T08:20:03;5.70;;;4.87;;
47429;SDS011;33181;49.246;7.372;2022-08-21T08:22:35;9.37;;;5.00;;
47429;SDS011;33181;49.246;7.372;2022-08-21T08:25:03;8.70;;;5.13;;
47429;SDS011;33181;49.246;7.372;2022-08-21T08:27:30;6.17;;;4.40;;
47429;SDS011;33181;49.246;7.372;2022-08-21T08:29:56;5.87;;;4.90;;
47429;SDS011;33181;49.246;7.372;2022-08-21T08:32:23;7.60;;;4.40;;
47429;SDS011;33181;49.246;7.372;2022-08-21T08:34:49;10.13;;;4.77;;
47429;SDS011;33181;49.246;7.372;2022-08-21T08:37:17;6.83;;;4.53;;
47429;SDS011;33181;49.246;7.372;2022-08-21T08:39:44;5.60;;;4.30;;
47429;SDS011;33181;49.246;7.372;2022-08-21T08:42:15;8.03;;;4.90;;
47429;SDS011;33181;49.246;7.372;2022-08-21T08:44:50;7.33;;;4.40;;
47429;SDS011;33181;49.246;7.372;2022-08-21T08:47:25;6.57;;;4.60;;
47429;SDS011;33181;49.246;7.372;2022-08-21T08:49:59;7.10;;;4.60;;
47429;SDS011;33181;49.246;7.372;2022-08-21T08:52:37;9.30;;;4.33;;
47429;SDS011;33181;49.246;7.372;2022-08-21T08:58:23;7.17;;;4.43;;
47429;SDS011;33181;49.246;7.372;2022-08-21T09:00:55;5.97;;;4.20;;
47429;SDS011;33181;49.246;7.372;2022-08-21T09:03:23;7.30;;;4.80;;
47429;SDS011;33181;49.246;7.372;2022-08-21T09:05:56;5.77;;;4.00;;
47429;SDS011;33181;49.246;7.372;2022-08-21T09:11:18;9.00;;;4.50;;
47429;SDS011;33181;49.246;7.372;2022-08-21T09:17:12;7.43;;;4.00;;
47429;SDS011;33181;49.246;7.372;2022-08-21T09:25:24;6.80;;;3.87;;
47429;SDS011;33181;49.246;7.372;2022-08-21T09:27:59;9.87;;;4.37;;
47429;SDS011;33181;49.246;7.372;2022-08-21T09:30:27;9.30;;;4.37;;
47429;SDS011;33181;49.246;7.372;2022-08-21T09:32:57;7.07;;;4.23;;
47429;SDS011;33181;49.246;7.372;2022-08-21T09:35:23;6.60;;;4.30;;
47429;SDS011;33181;49.246;7.372;2022-08-21T09:37:51;7.90;;;4.00;;
47429;SDS011;33181;49.246;7.372;2022-08-21T09:45:40;8.27;;;4.20;;
47429;SDS011;33181;49.246;7.372;2022-08-21T09:50:38;5.53;;;3.90;;
47429;SDS011;33181;49.246;7.372;2022-08-21T09:53:13;8.50;;;4.20;;
47429;SDS011;33181;49.246;7.372;2022-08-21T09:55:51;5.87;;;3.70;;
47429;SDS011;33181;49.246;7.372;2022-08-21T09:58:41;7.87;;;4.23;;
47429;SDS011;33181;49.246;7.372;2022-08-21T10:01:15;7.87;;;3.60;;
47429;SDS011;33181;49.246;7.372;2022-08-21T10:04:08;6.33;;;3.50;;
47429;SDS011;33181;49.246;7.372;2022-08-21T10:06:35;7.57;;;3.80;;
47429;SDS011;33181;49.246;7.372;2022-08-21T10:09:12;7.57;;;3.77;;
47429;SDS011;33181;49.246;7.372;2022-08-21T10:11:43;5.93;;;3.40;;
47429;SDS011;33181;49.246;7.372;2022-08-21T10:17:48;6.70;;;3.20;;
47429;SDS011;33181;49.246;7.372;2022-08-21T10:23:37;4.90;;;3.20;;
47429;SDS011;33181;49.246;7.372;2022-08-21T10:26:31;5.93;;;3.20;;
47429;SDS011;33181;49.246;7.372;2022-08-21T10:40:42;5.83;;;3.13;;
47429;SDS011;33181;49.246;7.372;2022-08-21T10:43:37;5.43;;;3.17;;
47429;SDS011;33181;49.246;7.372;2022-08-21T10:55:11;4.50;;;2.97;;
47429;SDS011;33181;49.246;7.372;2022-08-21T10:57:58;6.30;;;3.40;;
47429;SDS011;33181;49.246;7.372;2022-08-21T11:00:51;5.83;;;3.30;;
47429;SDS011;33181;49.246;7.372;2022-08-21T11:06:20;6.00;;;3.60;;
47429;SDS011;33181;49.246;7.372;2022-08-21T11:08:50;9.27;;;3.60;;
47429;SDS011;33181;49.246;7.372;2022-08-21T11:11:35;5.47;;;3.20;;
47429;SDS011;33181;49.246;7.372;2022-08-21T11:17:23;5.60;;;3.53;;
47429;SDS011;33181;49.246;7.372;2022-08-21T11:22:54;10.70;;;3.63;;
47429;SDS011;33181;49.246;7.372;2022-08-21T11:28:20;5.53;;;3.33;;
47429;SDS011;33181;49.246;7.372;2022-08-21T11:31:17;4.30;;;3.23;;
47429;SDS011;33181;49.246;7.372;2022-08-21T11:37:14;9.10;;;3.97;;
47429;SDS011;33181;49.246;7.372;2022-08-21T11:40:00;7.43;;;4.40;;
47429;SDS011;33181;49.246;7.372;2022-08-21T11:50:26;4.43;;;2.90;;
47429;SDS011;33181;49.246;7.372;2022-08-21T11:53:15;7.97;;;3.63;;
47429;SDS011;33181;49.246;7.372;2022-08-21T11:55:58;5.87;;;3.63;;
47429;SDS011;33181;49.246;7.372;2022-08-21T11:58:41;7.30;;;3.80;;
47429;SDS011;33181;49.246;7.372;2022-08-21T12:01:34;5.77;;;3.10;;
47429;SDS011;33181;49.246;7.372;2022-08-21T12:04:08;5.00;;;3.30;;
47429;SDS011;33181;49.246;7.372;2022-08-21T12:06:56;5.23;;;3.20;;
47429;SDS011;33181;49.246;7.372;2022-08-21T12:09:35;5.13;;;2.90;;
47429;SDS011;33181;49.246;7.372;2022-08-21T12:14:49;5.87;;;3.27;;
47429;SDS011;33181;49.246;7.372;2022-08-21T12:17:21;5.20;;;3.20;;
47429;SDS011;33181;49.246;7.372;2022-08-21T12:23:05;7.23;;;3.53;;
47429;SDS011;33181;49.246;7.372;2022-08-21T12:25:38;5.33;;;3.20;;
47429;SDS011;33181;49.246;7.372;2022-08-21T12:28:47;4.63;;;3.13;;
47429;SDS011;33181;49.246;7.372;2022-08-21T12:31:17;6.37;;;3.30;;
47429;SDS011;33181;49.246;7.372;2022-08-21T12:33:53;6.73;;;3.63;;
47429;SDS011;33181;49.246;7.372;2022-08-21T12:37:00;8.13;;;2.90;;
47429;SDS011;33181;49.246;7.372;2022-08-21T12:39:24;4.60;;;3.30;;
47429;SDS011;33181;49.246;7.372;2022-08-21T12:44:58;5.53;;;3.37;;
47429;SDS011;33181;49.246;7.372;2022-08-21T12:47:36;5.83;;;3.10;;
47429;SDS011;33181;49.246;7.372;2022-08-21T12:50:26;4.77;;;3.33;;
47429;SDS011;33181;49.246;7.372;2022-08-21T12:56:20;7.67;;;3.77;;
47429;SDS011;33181;49.246;7.372;2022-08-21T12:58:57;5.40;;;3.60;;
47429;SDS011;33181;49.246;7.372;2022-08-21T13:04:06;6.80;;;3.57;;
47429;SDS011;33181;49.246;7.372;2022-08-21T13:06:46;5.60;;;3.20;;
47429;SDS011;33181;49.246;7.372;2022-08-21T13:09:17;6.07;;;3.63;;
47429;SDS011;33181;49.246;7.372;2022-08-21T13:11:49;5.30;;;3.57;;
47429;SDS011;33181;49.246;7.372;2022-08-21T13:14:28;6.10;;;3.37;;
47429;SDS011;33181;49.246;7.372;2022-08-21T13:16:59;4.20;;;3.07;;
47429;SDS011;33181;49.246;7.372;2022-08-21T13:19:29;5.37;;;3.00;;
47429;SDS011;33181;49.246;7.372;2022-08-21T13:21:56;6.90;;;3.40;;
47429;SDS011;33181;49.246;7.372;2022-08-21T13:26:53;5.63;;;3.43;;
47429;SDS011;33181;49.246;7.372;2022-08-21T13:29:20;11.67;;;4.00;;
47429;SDS011;33181;49.246;7.372;2022-08-21T13:31:53;4.17;;;3.27;;
47429;SDS011;33181;49.246;7.372;2022-08-21T13:34:23;6.43;;;3.50;;
47429;SDS011;33181;49.246;7.372;2022-08-21T13:36:56;8.77;;;3.80;;
47429;SDS011;33181;49.246;7.372;2022-08-21T13:39:26;5.47;;;3.30;;
47429;SDS011;33181;49.246;7.372;2022-08-21T13:41:54;7.60;;;3.50;;
47429;SDS011;33181;49.246;7.372;2022-08-21T13:44:34;4.80;;;3.30;;
47429;SDS011;33181;49.246;7.372;2022-08-21T13:47:05;5.40;;;3.70;;
47429;SDS011;33181;49.246;7.372;2022-08-21T13:49:34;6.33;;;3.57;;
47429;SDS011;33181;49.246;7.372;2022-08-21T13:52:18;13.47;;;4.10;;
47429;SDS011;33181;49.246;7.372;2022-08-21T13:54:55;5.20;;;3.90;;
47429;SDS011;33181;49.246;7.372;2022-08-21T13:57:33;5.53;;;3.43;;
47429;SDS011;33181;49.246;7.372;2022-08-21T14:03:06;4.03;;;3.00;;
47429;SDS011;33181;49.246;7.372;2022-08-21T14:05:37;6.33;;;3.40;;
47429;SDS011;33181;49.246;7.372;2022-08-21T14:08:11;5.50;;;3.30;;
47429;SDS011;33181;49.246;7.372;2022-08-21T14:10:51;6.13;;;3.77;;
47429;SDS011;33181;49.246;7.372;2022-08-21T14:13:40;7.30;;;3.50;;
47429;SDS011;33181;49.246;7.372;2022-08-21T14:16:17;5.90;;;3.30;;
47429;SDS011;33181;49.246;7.372;2022-08-21T14:18:47;6.73;;;3.70;;
47429;SDS011;33181;49.246;7.372;2022-08-21T14:21:41;5.33;;;3.30;;
47429;SDS011;33181;49.246;7.372;2022-08-21T14:24:13;5.80;;;3.30;;
47429;SDS011;33181;49.246;7.372;2022-08-21T14:26:55;5.47;;;3.50;;
47429;SDS011;33181;49.246;7.372;2022-08-21T14:29:23;7.43;;;3.80;;
47429;SDS011;33181;49.246;7.372;2022-08-21T14:31:53;5.27;;;3.33;;
47429;SDS011;33181;49.246;7.372;2022-08-21T14:34:24;7.10;;;3.73;;
47429;SDS011;33181;49.246;7.372;2022-08-21T14:36:53;7.47;;;3.33;;
47429;SDS011;33181;49.246;7.372;2022-08-21T14:39:20;5.90;;;3.50;;
47429;SDS011;33181;49.246;7.372;2022-08-21T14:41:47;5.67;;;3.40;;
47429;SDS011;33181;49.246;7.372;2022-08-21T14:44:14;5.63;;;3.23;;
47429;SDS011;33181;49.246;7.372;2022-08-21T14:46:42;7.17;;;3.50;;
47429;SDS011;33181;49.246;7.372;2022-08-21T14:49:08;5.30;;;3.50;;
47429;SDS011;33181;49.246;7.372;2022-08-21T14:51:34;5.70;;;3.70;;
47429;SDS011;33181;49.246;7.372;2022-08-21T14:54:00;5.07;;;3.67;;
47429;SDS011;33181;49.246;7.372;2022-08-21T14:56:25;5.83;;;3.90;;
47429;SDS011;33181;49.246;7.372;2022-08-21T14:58:51;5.23;;;3.77;;
47429;SDS011;33181;49.246;7.372;2022-08-21T15:01:19;4.77;;;3.40;;
47429;SDS011;33181;49.246;7.372;2022-08-21T15:03:47;5.90;;;3.67;;
47429;SDS011;33181;49.246;7.372;2022-08-21T15:06:13;5.60;;;3.20;;
47429;SDS011;33181;49.246;7.372;2022-08-21T15:08:42;7.93;;;3.97;;
47429;SDS011;33181;49.246;7.372;2022-08-21T15:11:08;5.20;;;3.40;;
47429;SDS011;33181;49.246;7.372;2022-08-21T15:13:40;4.37;;;3.20;;
47429;SDS011;33181;49.246;7.372;2022-08-21T15:16:07;6.90;;;3.10;;
47429;SDS011;33181;49.246;7.372;2022-08-21T15:18:35;4.70;;;3.30;;
47429;SDS011;33181;49.246;7.372;2022-08-21T15:21:02;5.20;;;3.37;;
47429;SDS011;33181;49.246;7.372;2022-08-21T15:23:28;5.00;;;3.17;;
47429;SDS011;33181;49.246;7.372;2022-08-21T15:25:53;4.23;;;3.57;;
47429;SDS011;33181;49.246;7.372;2022-08-21T15:28:22;6.00;;;3.50;;
47429;SDS011;33181;49.246;7.372;2022-08-21T15:30:49;4.63;;;3.30;;
47429;SDS011;33181;49.246;7.372;2022-08-21T15:33:16;9.40;;;3.70;;
47429;SDS011;33181;49.246;7.372;2022-08-21T15:35:43;4.27;;;3.50;;
47429;SDS011;33181;49.246;7.372;2022-08-21T15:38:10;6.20;;;3.77;;
47429;SDS011;33181;49.246;7.372;2022-08-21T15:40:38;5.20;;;3.77;;
47429;SDS011;33181;49.246;7.372;2022-08-21T15:43:05;7.97;;;4.00;;
47429;SDS011;33181;49.246;7.372;2022-08-21T15:45:34;4.80;;;3.17;;
47429;SDS011;33181;49.246;7.372;2022-08-21T15:48:00;6.23;;;4.00;;
47429;SDS011;33181;49.246;7.372;2022-08-21T15:50:26;5.23;;;3.87;;
47429;SDS011;33181;49.246;7.372;2022-08-21T15:52:54;4.93;;;3.50;;
47429;SDS011;33181;49.246;7.372;2022-08-21T15:55:20;6.30;;;3.97;;
47429;SDS011;33181;49.246;7.372;2022-08-21T15:57:47;9.37;;;3.63;;
47429;SDS011;33181;49.246;7.372;2022-08-21T16:00:17;6.10;;;3.67;;
47429;SDS011;33181;49.246;7.372;2022-08-21T16:02:49;4.83;;;3.50;;
47429;SDS011;33181;49.246;7.372;2022-08-21T16:05:21;5.10;;;3.83;;
47429;SDS011;33181;49.246;7.372;2022-08-21T16:07:49;5.50;;;3.43;;
47429;SDS011;33181;49.246;7.372;2022-08-21T16:10:18;5.10;;;3.80;;
47429;SDS011;33181;49.246;7.372;2022-08-21T16:12:49;6.70;;;4.00;;
47429;SDS011;33181;49.246;7.372;2022-08-21T16:15:36;5.83;;;3.73;;
47429;SDS011;33181;49.246;7.372;2022-08-21T16:18:02;6.83;;;3.47;;
47429;SDS011;33181;49.246;7.372;2022-08-21T16:20:29;7.20;;;3.67;;
47429;SDS011;33181;49.246;7.372;2022-08-21T16:22:56;7.53;;;4.17;;
47429;SDS011;33181;49.246;7.372;2022-08-21T16:25:22;7.70;;;3.80;;
47429;SDS011;33181;49.246;7.372;2022-08-21T16:27:49;5.93;;;3.70;;
47429;SDS011;33181;49.246;7.372;2022-08-21T16:30:18;6.63;;;4.00;;
47429;SDS011;33181;49.246;7.372;2022-08-21T16:32:45;6.23;;;4.10;;
47429;SDS011;33181;49.246;7.372;2022-08-21T16:35:13;5.93;;;3.73;;
47429;SDS011;33181;49.246;7.372;2022-08-21T16:37:43;5.63;;;3.57;;
47429;SDS011;33181;49.246;7.372;2022-08-21T16:40:09;7.50;;;3.73;;